sensor_id;sensor_type;location;lat;lon;timestamp;P1;durP1;ratioP1;P2;durP2;ratioP2
37049;SDS011;22958;51.232;6.826;2024-03-08T00:01:13;42.30;;;20.90;;
37049;SDS011;22958;51.232;6.826;2024-03-08T00:03:39;41.83;;;21.50;;
37049;SDS011;22958;51.232;6.826;2024-03-08T00:06:05;39.90;;;21.87;;
37049;SDS011;22958;51.232;6.826;2024-03-08T00:08:31;43.23;;;22.57;;
37049;SDS011;22958;51.232;6.826;2024-03-08T00:10:56;39.83;;;21.93;;
37049;SDS011;22958;51.232;6.826;2024-03-08T00:13:22;43.83;;;22.37;;
37049;SDS011;22958;51.232;6.826;2024-03-08T00:15:47;45.87;;;22.17;;
37049;SDS011;22958;51.232;6.826;2024-03-08T00:18:13;50.63;;;21.50;;
37049;SDS011;22958;51.232;6.826;2024-03-08T00:20:38;41.07;;;21.63;;
37049;SDS011;22958;51.232;6.826;2024-03-08T00:23:04;44.57;;;22.20;;
37049;SDS011;22958;51.232;6.826;2024-03-08T00:25:29;38.50;;;20.77;;
37049;SDS011;22958;51.232;6.826;2024-03-08T00:27:55;47.83;;;20.85;;
37049;SDS011;22958;51.232;6.826;2024-03-08T00:30:22;42.93;;;21.47;;
37049;SDS011;22958;51.232;6.826;2024-03-08T00:32:48;42.85;;;22.40;;
37049;SDS011;22958;51.232;6.826;2024-03-08T00:35:14;42.63;;;21.63;;
37049;SDS011;22958;51.232;6.826;2024-03-08T00:37:40;43.50;;;22.43;;
37049;SDS011;22958;51.232;6.826;2024-03-08T00:40:07;48.15;;;23.23;;
37049;SDS011;22958;51.232;6.826;2024-03-08T00:42:34;42.38;;;21.88;;
37049;SDS011;22958;51.232;6.826;2024-03-08T00:45:01;42.22;;;21.65;;
37049;SDS011;22958;51.232;6.826;2024-03-08T00:47:26;48.80;;;22.75;;
37049;SDS011;22958;51.232;6.826;2024-03-08T00:49:52;51.37;;;23.63;;
37049;SDS011;22958;51.232;6.826;2024-03-08T00:52:18;45.13;;;22.25;;
37049;SDS011;22958;51.232;6.826;2024-03-08T00:54:44;43.43;;;22.00;;
37049;SDS011;22958;51.232;6.826;2024-03-08T00:57:10;47.03;;;21.75;;
37049;SDS011;22958;51.232;6.826;2024-03-08T00:59:37;45.40;;;22.90;;
37049;SDS011;22958;51.232;6.826;2024-03-08T01:02:03;40.08;;;20.20;;
37049;SDS011;22958;51.232;6.826;2024-03-08T01:04:29;51.63;;;22.57;;
37049;SDS011;22958;51.232;6.826;2024-03-08T01:06:55;44.23;;;22.33;;
37049;SDS011;22958;51.232;6.826;2024-03-08T01:09:24;46.72;;;23.00;;
37049;SDS011;22958;51.232;6.826;2024-03-08T01:11:51;44.08;;;23.15;;
37049;SDS011;22958;51.232;6.826;2024-03-08T01:14:20;47.10;;;22.15;;
37049;SDS011;22958;51.232;6.826;2024-03-08T01:16:49;49.58;;;23.48;;
37049;SDS011;22958;51.232;6.826;2024-03-08T01:19:15;51.83;;;22.42;;
37049;SDS011;22958;51.232;6.826;2024-03-08T01:21:40;47.47;;;22.33;;
37049;SDS011;22958;51.232;6.826;2024-03-08T01:24:06;45.08;;;23.33;;
37049;SDS011;22958;51.232;6.826;2024-03-08T01:26:32;45.00;;;22.63;;
37049;SDS011;22958;51.232;6.826;2024-03-08T01:28:59;43.47;;;22.30;;
37049;SDS011;22958;51.232;6.826;2024-03-08T01:31:25;45.08;;;22.88;;
37049;SDS011;22958;51.232;6.826;2024-03-08T01:33:50;41.50;;;21.63;;
37049;SDS011;22958;51.232;6.826;2024-03-08T01:36:16;46.57;;;22.27;;
37049;SDS011;22958;51.232;6.826;2024-03-08T01:38:44;43.38;;;21.38;;
37049;SDS011;22958;51.232;6.826;2024-03-08T01:41:10;48.47;;;22.60;;
37049;SDS011;22958;51.232;6.826;2024-03-08T01:43:35;43.37;;;21.97;;
37049;SDS011;22958;51.232;6.826;2024-03-08T01:46:01;49.40;;;22.00;;
37049;SDS011;22958;51.232;6.826;2024-03-08T01:48:27;48.72;;;22.67;;
37049;SDS011;22958;51.232;6.826;2024-03-08T01:50:54;45.20;;;22.45;;
37049;SDS011;22958;51.232;6.826;2024-03-08T01:53:21;45.60;;;23.15;;
37049;SDS011;22958;51.232;6.826;2024-03-08T01:55:48;39.50;;;20.92;;
37049;SDS011;22958;51.232;6.826;2024-03-08T01:58:14;45.70;;;24.02;;
37049;SDS011;22958;51.232;6.826;2024-03-08T02:00:44;46.85;;;23.55;;
37049;SDS011;22958;51.232;6.826;2024-03-08T02:03:11;50.97;;;24.40;;
37049;SDS011;22958;51.232;6.826;2024-03-08T02:05:37;53.87;;;23.47;;
37049;SDS011;22958;51.232;6.826;2024-03-08T02:08:05;48.30;;;23.90;;
37049;SDS011;22958;51.232;6.826;2024-03-08T02:12:58;48.58;;;21.48;;
37049;SDS011;22958;51.232;6.826;2024-03-08T02:15:26;56.83;;;24.38;;
37049;SDS011;22958;51.232;6.826;2024-03-08T02:18:12;49.85;;;23.88;;
37049;SDS011;22958;51.232;6.826;2024-03-08T02:20:38;45.47;;;23.35;;
37049;SDS011;22958;51.232;6.826;2024-03-08T02:23:03;43.50;;;23.57;;
37049;SDS011;22958;51.232;6.826;2024-03-08T02:25:29;51.45;;;24.40;;
37049;SDS011;22958;51.232;6.826;2024-03-08T02:27:56;48.88;;;24.05;;
37049;SDS011;22958;51.232;6.826;2024-03-08T02:30:21;50.33;;;23.93;;
37049;SDS011;22958;51.232;6.826;2024-03-08T02:32:47;51.50;;;24.17;;
37049;SDS011;22958;51.232;6.826;2024-03-08T02:35:12;53.50;;;24.37;;
37049;SDS011;22958;51.232;6.826;2024-03-08T02:37:38;52.67;;;23.33;;
37049;SDS011;22958;51.232;6.826;2024-03-08T02:40:03;46.57;;;23.57;;
37049;SDS011;22958;51.232;6.826;2024-03-08T02:42:30;46.38;;;23.83;;
37049;SDS011;22958;51.232;6.826;2024-03-08T02:44:55;54.53;;;24.80;;
37049;SDS011;22958;51.232;6.826;2024-03-08T02:47:21;52.23;;;24.40;;
37049;SDS011;22958;51.232;6.826;2024-03-08T02:49:46;51.77;;;24.73;;
37049;SDS011;22958;51.232;6.826;2024-03-08T02:52:12;54.57;;;24.53;;
37049;SDS011;22958;51.232;6.826;2024-03-08T02:54:37;48.83;;;23.83;;
37049;SDS011;22958;51.232;6.826;2024-03-08T02:57:03;54.57;;;24.83;;
37049;SDS011;22958;51.232;6.826;2024-03-08T02:59:29;53.27;;;25.10;;
37049;SDS011;22958;51.232;6.826;2024-03-08T03:01:54;48.10;;;23.93;;
37049;SDS011;22958;51.232;6.826;2024-03-08T03:04:20;49.08;;;24.45;;
37049;SDS011;22958;51.232;6.826;2024-03-08T03:06:46;49.37;;;24.60;;
37049;SDS011;22958;51.232;6.826;2024-03-08T03:09:11;54.70;;;22.40;;
37049;SDS011;22958;51.232;6.826;2024-03-08T03:11:37;49.77;;;24.20;;
37049;SDS011;22958;51.232;6.826;2024-03-08T03:14:02;54.80;;;25.43;;
37049;SDS011;22958;51.232;6.826;2024-03-08T03:16:29;47.65;;;23.77;;
37049;SDS011;22958;51.232;6.826;2024-03-08T03:18:54;48.87;;;23.40;;
37049;SDS011;22958;51.232;6.826;2024-03-08T03:21:22;50.55;;;24.33;;
37049;SDS011;22958;51.232;6.826;2024-03-08T03:23:47;49.37;;;23.33;;
37049;SDS011;22958;51.232;6.826;2024-03-08T03:26:13;48.60;;;23.17;;
37049;SDS011;22958;51.232;6.826;2024-03-08T03:28:38;52.90;;;24.10;;
37049;SDS011;22958;51.232;6.826;2024-03-08T03:31:07;52.67;;;24.90;;
37049;SDS011;22958;51.232;6.826;2024-03-08T03:33:33;52.03;;;23.05;;
37049;SDS011;22958;51.232;6.826;2024-03-08T03:36:02;54.17;;;24.75;;
37049;SDS011;22958;51.232;6.826;2024-03-08T03:38:30;51.45;;;24.42;;
37049;SDS011;22958;51.232;6.826;2024-03-08T03:40:55;47.90;;;24.47;;
37049;SDS011;22958;51.232;6.826;2024-03-08T03:43:22;47.53;;;24.05;;
37049;SDS011;22958;51.232;6.826;2024-03-08T03:45:48;50.28;;;23.60;;
37049;SDS011;22958;51.232;6.826;2024-03-08T03:48:14;53.67;;;24.73;;
37049;SDS011;22958;51.232;6.826;2024-03-08T03:50:39;52.33;;;24.87;;
37049;SDS011;22958;51.232;6.826;2024-03-08T03:53:05;49.00;;;23.77;;
37049;SDS011;22958;51.232;6.826;2024-03-08T03:55:33;55.15;;;24.48;;
37049;SDS011;22958;51.232;6.826;2024-03-08T03:57:59;48.97;;;22.87;;
37049;SDS011;22958;51.232;6.826;2024-03-08T04:00:26;47.05;;;23.15;;
37049;SDS011;22958;51.232;6.826;2024-03-08T04:02:52;49.63;;;23.33;;
37049;SDS011;22958;51.232;6.826;2024-03-08T04:05:17;52.07;;;24.63;;
37049;SDS011;22958;51.232;6.826;2024-03-08T04:07:43;51.63;;;23.67;;
37049;SDS011;22958;51.232;6.826;2024-03-08T04:10:09;54.53;;;25.20;;
37049;SDS011;22958;51.232;6.826;2024-03-08T04:12:36;52.42;;;23.40;;
37049;SDS011;22958;51.232;6.826;2024-03-08T04:15:02;54.97;;;25.27;;
37049;SDS011;22958;51.232;6.826;2024-03-08T04:17:29;58.28;;;25.83;;
37049;SDS011;22958;51.232;6.826;2024-03-08T04:19:55;55.70;;;24.47;;
37049;SDS011;22958;51.232;6.826;2024-03-08T04:22:21;51.78;;;24.70;;
37049;SDS011;22958;51.232;6.826;2024-03-08T04:24:47;57.57;;;24.97;;
37049;SDS011;22958;51.232;6.826;2024-03-08T04:27:13;51.90;;;24.77;;
37049;SDS011;22958;51.232;6.826;2024-03-08T04:29:41;49.95;;;24.45;;
37049;SDS011;22958;51.232;6.826;2024-03-08T04:32:07;50.00;;;24.37;;
37049;SDS011;22958;51.232;6.826;2024-03-08T04:34:33;52.38;;;25.80;;
37049;SDS011;22958;51.232;6.826;2024-03-08T04:37:02;50.30;;;23.80;;
37049;SDS011;22958;51.232;6.826;2024-03-08T04:39:29;53.70;;;24.10;;
37049;SDS011;22958;51.232;6.826;2024-03-08T04:41:56;57.28;;;25.92;;
37049;SDS011;22958;51.232;6.826;2024-03-08T04:44:28;53.58;;;24.55;;
37049;SDS011;22958;51.232;6.826;2024-03-08T04:46:54;53.47;;;24.07;;
37049;SDS011;22958;51.232;6.826;2024-03-08T04:49:19;53.23;;;24.63;;
37049;SDS011;22958;51.232;6.826;2024-03-08T04:51:46;51.15;;;24.30;;
37049;SDS011;22958;51.232;6.826;2024-03-08T04:54:12;61.57;;;23.83;;
37049;SDS011;22958;51.232;6.826;2024-03-08T04:56:37;49.33;;;23.43;;
37049;SDS011;22958;51.232;6.826;2024-03-08T04:59:03;54.40;;;24.20;;
37049;SDS011;22958;51.232;6.826;2024-03-08T05:01:32;55.00;;;24.13;;
37049;SDS011;22958;51.232;6.826;2024-03-08T05:03:58;55.23;;;25.73;;
37049;SDS011;22958;51.232;6.826;2024-03-08T05:06:24;55.47;;;25.23;;
37049;SDS011;22958;51.232;6.826;2024-03-08T05:08:49;53.23;;;24.23;;
37049;SDS011;22958;51.232;6.826;2024-03-08T05:11:15;51.00;;;24.67;;
37049;SDS011;22958;51.232;6.826;2024-03-08T05:13:41;52.57;;;23.97;;
37049;SDS011;22958;51.232;6.826;2024-03-08T05:16:06;48.70;;;23.60;;
37049;SDS011;22958;51.232;6.826;2024-03-08T05:18:32;51.97;;;24.50;;
37049;SDS011;22958;51.232;6.826;2024-03-08T05:20:58;51.00;;;24.50;;
37049;SDS011;22958;51.232;6.826;2024-03-08T05:23:24;54.63;;;25.07;;
37049;SDS011;22958;51.232;6.826;2024-03-08T05:25:50;50.17;;;24.90;;
37049;SDS011;22958;51.232;6.826;2024-03-08T05:28:16;56.30;;;25.15;;
37049;SDS011;22958;51.232;6.826;2024-03-08T05:30:41;59.47;;;25.43;;
37049;SDS011;22958;51.232;6.826;2024-03-08T05:33:07;59.17;;;25.90;;
37049;SDS011;22958;51.232;6.826;2024-03-08T05:35:35;58.78;;;25.23;;
37049;SDS011;22958;51.232;6.826;2024-03-08T05:38:01;50.40;;;23.52;;
37049;SDS011;22958;51.232;6.826;2024-03-08T05:40:26;46.70;;;23.13;;
37049;SDS011;22958;51.232;6.826;2024-03-08T05:42:56;51.45;;;24.05;;
37049;SDS011;22958;51.232;6.826;2024-03-08T05:45:22;52.70;;;24.38;;
37049;SDS011;22958;51.232;6.826;2024-03-08T05:47:50;55.78;;;24.67;;
37049;SDS011;22958;51.232;6.826;2024-03-08T05:50:16;58.25;;;26.77;;
37049;SDS011;22958;51.232;6.826;2024-03-08T05:52:42;59.27;;;27.37;;
37049;SDS011;22958;51.232;6.826;2024-03-08T05:55:08;52.38;;;25.05;;
37049;SDS011;22958;51.232;6.826;2024-03-08T05:57:34;48.00;;;23.05;;
37049;SDS011;22958;51.232;6.826;2024-03-08T06:00:03;54.03;;;25.27;;
37049;SDS011;22958;51.232;6.826;2024-03-08T06:02:29;58.40;;;25.42;;
37049;SDS011;22958;51.232;6.826;2024-03-08T06:04:54;71.30;;;26.23;;
37049;SDS011;22958;51.232;6.826;2024-03-08T06:07:20;57.08;;;25.67;;
37049;SDS011;22958;51.232;6.826;2024-03-08T06:09:46;52.60;;;25.13;;
37049;SDS011;22958;51.232;6.826;2024-03-08T06:12:13;54.83;;;24.90;;
37049;SDS011;22958;51.232;6.826;2024-03-08T06:14:43;55.25;;;25.67;;
37049;SDS011;22958;51.232;6.826;2024-03-08T06:17:12;53.25;;;25.45;;
37049;SDS011;22958;51.232;6.826;2024-03-08T06:19:37;60.67;;;24.63;;
37049;SDS011;22958;51.232;6.826;2024-03-08T06:22:03;56.27;;;25.60;;
37049;SDS011;22958;51.232;6.826;2024-03-08T06:24:31;58.70;;;25.60;;
37049;SDS011;22958;51.232;6.826;2024-03-08T06:26:57;56.17;;;25.25;;
37049;SDS011;22958;51.232;6.826;2024-03-08T06:29:22;51.63;;;23.83;;
37049;SDS011;22958;51.232;6.826;2024-03-08T06:31:48;61.00;;;24.63;;
37049;SDS011;22958;51.232;6.826;2024-03-08T06:34:14;52.05;;;26.17;;
37049;SDS011;22958;51.232;6.826;2024-03-08T06:36:40;57.67;;;26.00;;
37049;SDS011;22958;51.232;6.826;2024-03-08T06:39:06;52.13;;;24.10;;
37049;SDS011;22958;51.232;6.826;2024-03-08T06:41:35;59.50;;;24.90;;
37049;SDS011;22958;51.232;6.826;2024-03-08T06:44:01;58.58;;;24.52;;
37049;SDS011;22958;51.232;6.826;2024-03-08T06:46:26;65.80;;;25.43;;
37049;SDS011;22958;51.232;6.826;2024-03-08T06:48:53;53.67;;;25.38;;
37049;SDS011;22958;51.232;6.826;2024-03-08T06:51:18;52.83;;;24.87;;
37049;SDS011;22958;51.232;6.826;2024-03-08T06:53:44;55.23;;;25.00;;
37049;SDS011;22958;51.232;6.826;2024-03-08T06:56:31;58.50;;;26.25;;
37049;SDS011;22958;51.232;6.826;2024-03-08T06:58:56;49.83;;;22.50;;
37049;SDS011;22958;51.232;6.826;2024-03-08T07:01:22;53.57;;;24.53;;
37049;SDS011;22958;51.232;6.826;2024-03-08T07:03:47;50.37;;;24.73;;
37049;SDS011;22958;51.232;6.826;2024-03-08T07:06:13;50.17;;;23.90;;
37049;SDS011;22958;51.232;6.826;2024-03-08T07:08:39;47.47;;;23.08;;
37049;SDS011;22958;51.232;6.826;2024-03-08T07:11:04;48.40;;;24.07;;
37049;SDS011;22958;51.232;6.826;2024-03-08T07:13:30;47.70;;;22.23;;
37049;SDS011;22958;51.232;6.826;2024-03-08T07:15:56;50.00;;;23.38;;
37049;SDS011;22958;51.232;6.826;2024-03-08T07:18:25;54.08;;;26.08;;
37049;SDS011;22958;51.232;6.826;2024-03-08T07:20:50;50.40;;;24.20;;
37049;SDS011;22958;51.232;6.826;2024-03-08T07:23:16;55.53;;;23.50;;
37049;SDS011;22958;51.232;6.826;2024-03-08T07:26:01;58.28;;;24.35;;
37049;SDS011;22958;51.232;6.826;2024-03-08T07:28:27;51.93;;;23.03;;
37049;SDS011;22958;51.232;6.826;2024-03-08T07:30:55;47.83;;;23.63;;
37049;SDS011;22958;51.232;6.826;2024-03-08T07:33:34;47.13;;;24.00;;
37049;SDS011;22958;51.232;6.826;2024-03-08T07:36:00;51.43;;;23.20;;
37049;SDS011;22958;51.232;6.826;2024-03-08T07:38:26;47.13;;;22.83;;
37049;SDS011;22958;51.232;6.826;2024-03-08T07:40:51;49.87;;;23.23;;
37049;SDS011;22958;51.232;6.826;2024-03-08T07:43:17;46.90;;;22.97;;
37049;SDS011;22958;51.232;6.826;2024-03-08T07:45:42;47.77;;;23.33;;
37049;SDS011;22958;51.232;6.826;2024-03-08T07:48:08;46.43;;;22.73;;
37049;SDS011;22958;51.232;6.826;2024-03-08T07:50:37;49.58;;;22.95;;
37049;SDS011;22958;51.232;6.826;2024-03-08T07:53:07;48.65;;;23.33;;
37049;SDS011;22958;51.232;6.826;2024-03-08T07:55:33;53.10;;;22.08;;
37049;SDS011;22958;51.232;6.826;2024-03-08T07:58:00;48.60;;;23.10;;
37049;SDS011;22958;51.232;6.826;2024-03-08T08:00:26;48.08;;;23.05;;
37049;SDS011;22958;51.232;6.826;2024-03-08T08:02:52;44.38;;;22.50;;
37049;SDS011;22958;51.232;6.826;2024-03-08T08:05:18;47.88;;;21.85;;
37049;SDS011;22958;51.232;6.826;2024-03-08T08:07:44;45.70;;;21.93;;
37049;SDS011;22958;51.232;6.826;2024-03-08T08:10:11;46.63;;;21.65;;
37049;SDS011;22958;51.232;6.826;2024-03-08T08:12:50;42.92;;;20.35;;
37049;SDS011;22958;51.232;6.826;2024-03-08T08:15:16;43.72;;;22.67;;
37049;SDS011;22958;51.232;6.826;2024-03-08T08:17:43;40.95;;;21.02;;
37049;SDS011;22958;51.232;6.826;2024-03-08T08:20:09;45.60;;;21.10;;
37049;SDS011;22958;51.232;6.826;2024-03-08T08:22:37;47.08;;;21.73;;
37049;SDS011;22958;51.232;6.826;2024-03-08T08:25:06;42.55;;;21.27;;
37049;SDS011;22958;51.232;6.826;2024-03-08T08:27:32;41.00;;;19.95;;
37049;SDS011;22958;51.232;6.826;2024-03-08T08:29:58;41.10;;;20.77;;
37049;SDS011;22958;51.232;6.826;2024-03-08T08:32:24;40.27;;;19.60;;
37049;SDS011;22958;51.232;6.826;2024-03-08T08:34:49;40.00;;;18.97;;
37049;SDS011;22958;51.232;6.826;2024-03-08T08:37:15;35.20;;;18.80;;
37049;SDS011;22958;51.232;6.826;2024-03-08T08:39:41;38.20;;;19.50;;
37049;SDS011;22958;51.232;6.826;2024-03-08T08:42:07;41.00;;;18.95;;
37049;SDS011;22958;51.232;6.826;2024-03-08T08:47:00;37.08;;;17.83;;
37049;SDS011;22958;51.232;6.826;2024-03-08T08:49:25;36.07;;;18.03;;
37049;SDS011;22958;51.232;6.826;2024-03-08T08:51:51;34.27;;;16.87;;
37049;SDS011;22958;51.232;6.826;2024-03-08T08:54:17;56.20;;;18.05;;
37049;SDS011;22958;51.232;6.826;2024-03-08T08:56:43;29.70;;;17.23;;
37049;SDS011;22958;51.232;6.826;2024-03-08T08:59:09;33.80;;;17.57;;
37049;SDS011;22958;51.232;6.826;2024-03-08T09:01:38;39.17;;;17.20;;
37049;SDS011;22958;51.232;6.826;2024-03-08T09:04:04;32.47;;;17.70;;
37049;SDS011;22958;51.232;6.826;2024-03-08T09:06:30;34.33;;;16.67;;
37049;SDS011;22958;51.232;6.826;2024-03-08T09:08:56;36.87;;;17.63;;
37049;SDS011;22958;51.232;6.826;2024-03-08T09:11:21;31.47;;;16.47;;
37049;SDS011;22958;51.232;6.826;2024-03-08T09:13:47;31.80;;;16.33;;
37049;SDS011;22958;51.232;6.826;2024-03-08T09:16:14;35.15;;;16.20;;
37049;SDS011;22958;51.232;6.826;2024-03-08T09:18:39;30.90;;;16.27;;
37049;SDS011;22958;51.232;6.826;2024-03-08T09:21:06;31.17;;;16.75;;
37049;SDS011;22958;51.232;6.826;2024-03-08T09:23:34;33.85;;;16.58;;
37049;SDS011;22958;51.232;6.826;2024-03-08T09:26:00;31.88;;;16.30;;
37049;SDS011;22958;51.232;6.826;2024-03-08T09:28:28;33.63;;;16.63;;
37049;SDS011;22958;51.232;6.826;2024-03-08T09:30:53;31.63;;;15.93;;
37049;SDS011;22958;51.232;6.826;2024-03-08T09:33:20;35.27;;;16.10;;
37049;SDS011;22958;51.232;6.826;2024-03-08T09:35:46;34.80;;;15.90;;
37049;SDS011;22958;51.232;6.826;2024-03-08T09:38:13;32.03;;;16.00;;
37049;SDS011;22958;51.232;6.826;2024-03-08T09:40:42;35.10;;;16.67;;
37049;SDS011;22958;51.232;6.826;2024-03-08T09:43:09;37.88;;;16.15;;
37049;SDS011;22958;51.232;6.826;2024-03-08T09:45:36;31.92;;;16.27;;
37049;SDS011;22958;51.232;6.826;2024-03-08T09:48:12;31.75;;;16.85;;
37049;SDS011;22958;51.232;6.826;2024-03-08T09:50:39;31.90;;;16.20;;
37049;SDS011;22958;51.232;6.826;2024-03-08T09:53:06;28.40;;;14.82;;
37049;SDS011;22958;51.232;6.826;2024-03-08T09:55:34;34.88;;;16.60;;
37049;SDS011;22958;51.232;6.826;2024-03-08T09:58:07;33.75;;;16.00;;
37049;SDS011;22958;51.232;6.826;2024-03-08T10:00:53;31.25;;;16.35;;
37049;SDS011;22958;51.232;6.826;2024-03-08T10:03:19;31.88;;;16.35;;
37049;SDS011;22958;51.232;6.826;2024-03-08T10:05:44;33.78;;;15.50;;
37049;SDS011;22958;51.232;6.826;2024-03-08T10:08:10;26.27;;;14.83;;
37049;SDS011;22958;51.232;6.826;2024-03-08T10:10:36;27.17;;;14.93;;
37049;SDS011;22958;51.232;6.826;2024-03-08T10:13:05;33.70;;;16.50;;
37049;SDS011;22958;51.232;6.826;2024-03-08T10:15:31;34.28;;;16.70;;
37049;SDS011;22958;51.232;6.826;2024-03-08T10:17:58;33.35;;;15.10;;
37049;SDS011;22958;51.232;6.826;2024-03-08T10:20:24;31.58;;;15.05;;
37049;SDS011;22958;51.232;6.826;2024-03-08T10:22:51;31.75;;;15.65;;
37049;SDS011;22958;51.232;6.826;2024-03-08T10:25:18;27.15;;;14.98;;
37049;SDS011;22958;51.232;6.826;2024-03-08T10:27:44;25.80;;;14.23;;
37049;SDS011;22958;51.232;6.826;2024-03-08T10:30:14;24.33;;;13.07;;
37049;SDS011;22958;51.232;6.826;2024-03-08T10:32:41;27.00;;;14.13;;
37049;SDS011;22958;51.232;6.826;2024-03-08T10:35:07;22.93;;;12.90;;
37049;SDS011;22958;51.232;6.826;2024-03-08T10:37:33;23.88;;;13.52;;
37049;SDS011;22958;51.232;6.826;2024-03-08T10:40:06;27.60;;;13.27;;
37049;SDS011;22958;51.232;6.826;2024-03-08T10:42:41;27.17;;;13.82;;
37049;SDS011;22958;51.232;6.826;2024-03-08T10:45:23;27.80;;;12.73;;
37049;SDS011;22958;51.232;6.826;2024-03-08T10:51:02;24.02;;;12.48;;
37049;SDS011;22958;51.232;6.826;2024-03-08T10:53:28;22.70;;;11.63;;
37049;SDS011;22958;51.232;6.826;2024-03-08T10:55:57;23.17;;;12.48;;
37049;SDS011;22958;51.232;6.826;2024-03-08T10:58:26;21.25;;;11.82;;
37049;SDS011;22958;51.232;6.826;2024-03-08T11:00:53;23.23;;;13.38;;
37049;SDS011;22958;51.232;6.826;2024-03-08T11:09:03;22.27;;;11.75;;
37049;SDS011;22958;51.232;6.826;2024-03-08T11:11:53;22.48;;;11.43;;
37049;SDS011;22958;51.232;6.826;2024-03-08T11:14:52;22.75;;;10.57;;
37049;SDS011;22958;51.232;6.826;2024-03-08T11:17:25;19.00;;;10.45;;
37049;SDS011;22958;51.232;6.826;2024-03-08T11:20:12;21.45;;;10.45;;
37049;SDS011;22958;51.232;6.826;2024-03-08T11:22:42;17.73;;;11.13;;
37049;SDS011;22958;51.232;6.826;2024-03-08T11:25:39;19.42;;;10.48;;
37049;SDS011;22958;51.232;6.826;2024-03-08T11:30:42;17.85;;;10.27;;
37049;SDS011;22958;51.232;6.826;2024-03-08T11:33:12;19.50;;;10.57;;
37049;SDS011;22958;51.232;6.826;2024-03-08T11:35:38;18.65;;;10.32;;
37049;SDS011;22958;51.232;6.826;2024-03-08T11:38:07;18.15;;;10.43;;
37049;SDS011;22958;51.232;6.826;2024-03-08T11:40:33;20.90;;;10.90;;
37049;SDS011;22958;51.232;6.826;2024-03-08T11:43:00;19.35;;;11.98;;
37049;SDS011;22958;51.232;6.826;2024-03-08T11:45:28;22.02;;;11.57;;
37049;SDS011;22958;51.232;6.826;2024-03-08T11:47:54;18.53;;;11.27;;
37049;SDS011;22958;51.232;6.826;2024-03-08T11:50:19;21.48;;;11.32;;
37049;SDS011;22958;51.232;6.826;2024-03-08T11:52:46;20.33;;;11.15;;
37049;SDS011;22958;51.232;6.826;2024-03-08T11:55:12;18.65;;;11.18;;
37049;SDS011;22958;51.232;6.826;2024-03-08T11:57:37;20.02;;;10.82;;
37049;SDS011;22958;51.232;6.826;2024-03-08T12:00:03;20.20;;;10.25;;
37049;SDS011;22958;51.232;6.826;2024-03-08T12:02:32;17.88;;;10.27;;
37049;SDS011;22958;51.232;6.826;2024-03-08T12:05:03;18.40;;;11.30;;
37049;SDS011;22958;51.232;6.826;2024-03-08T12:07:31;15.48;;;9.70;;
37049;SDS011;22958;51.232;6.826;2024-03-08T12:10:15;21.70;;;10.73;;
37049;SDS011;22958;51.232;6.826;2024-03-08T12:12:48;14.25;;;10.00;;
37049;SDS011;22958;51.232;6.826;2024-03-08T12:15:16;15.73;;;9.93;;
37049;SDS011;22958;51.232;6.826;2024-03-08T12:17:43;17.33;;;10.77;;
37049;SDS011;22958;51.232;6.826;2024-03-08T12:20:19;14.52;;;9.43;;
37049;SDS011;22958;51.232;6.826;2024-03-08T12:22:46;16.20;;;9.95;;
37049;SDS011;22958;51.232;6.826;2024-03-08T12:25:13;15.95;;;8.30;;
37049;SDS011;22958;51.232;6.826;2024-03-08T12:27:40;17.42;;;8.90;;
37049;SDS011;22958;51.232;6.826;2024-03-08T12:32:50;16.35;;;9.10;;
37049;SDS011;22958;51.232;6.826;2024-03-08T12:35:18;17.27;;;8.85;;
37049;SDS011;22958;51.232;6.826;2024-03-08T12:37:47;13.13;;;8.32;;
37049;SDS011;22958;51.232;6.826;2024-03-08T12:40:14;15.85;;;8.93;;
37049;SDS011;22958;51.232;6.826;2024-03-08T12:42:41;13.55;;;7.95;;
37049;SDS011;22958;51.232;6.826;2024-03-08T12:45:08;14.40;;;8.57;;
37049;SDS011;22958;51.232;6.826;2024-03-08T12:47:35;17.42;;;10.23;;
37049;SDS011;22958;51.232;6.826;2024-03-08T12:50:01;14.77;;;9.40;;
37049;SDS011;22958;51.232;6.826;2024-03-08T12:52:28;16.30;;;8.77;;
37049;SDS011;22958;51.232;6.826;2024-03-08T12:54:55;13.63;;;8.15;;
37049;SDS011;22958;51.232;6.826;2024-03-08T12:57:20;15.05;;;9.52;;
37049;SDS011;22958;51.232;6.826;2024-03-08T12:59:46;19.50;;;9.23;;
37049;SDS011;22958;51.232;6.826;2024-03-08T13:02:12;17.50;;;10.07;;
37049;SDS011;22958;51.232;6.826;2024-03-08T13:04:37;14.63;;;8.97;;
37049;SDS011;22958;51.232;6.826;2024-03-08T13:07:03;85.60;;;48.90;;
37049;SDS011;22958;51.232;6.826;2024-03-08T13:09:28;15.87;;;9.57;;
37049;SDS011;22958;51.232;6.826;2024-03-08T13:11:54;17.97;;;9.37;;
37049;SDS011;22958;51.232;6.826;2024-03-08T13:14:20;16.88;;;8.93;;
37049;SDS011;22958;51.232;6.826;2024-03-08T13:16:46;15.10;;;9.25;;
37049;SDS011;22958;51.232;6.826;2024-03-08T13:21:38;17.02;;;9.80;;
37049;SDS011;22958;51.232;6.826;2024-03-08T13:24:04;16.60;;;9.30;;
37049;SDS011;22958;51.232;6.826;2024-03-08T13:26:30;16.52;;;9.60;;
37049;SDS011;22958;51.232;6.826;2024-03-08T13:28:58;17.27;;;9.40;;
37049;SDS011;22958;51.232;6.826;2024-03-08T13:31:24;17.23;;;9.30;;
37049;SDS011;22958;51.232;6.826;2024-03-08T13:33:49;13.87;;;8.73;;
37049;SDS011;22958;51.232;6.826;2024-03-08T13:36:16;16.45;;;9.23;;
37049;SDS011;22958;51.232;6.826;2024-03-08T13:38:46;14.35;;;8.80;;
37049;SDS011;22958;51.232;6.826;2024-03-08T13:41:12;18.25;;;10.15;;
37049;SDS011;22958;51.232;6.826;2024-03-08T13:43:45;19.60;;;9.95;;
37049;SDS011;22958;51.232;6.826;2024-03-08T13:46:12;15.50;;;9.75;;
37049;SDS011;22958;51.232;6.826;2024-03-08T13:48:37;17.53;;;9.23;;
37049;SDS011;22958;51.232;6.826;2024-03-08T13:51:06;16.27;;;10.00;;
37049;SDS011;22958;51.232;6.826;2024-03-08T13:53:33;23.35;;;10.70;;
37049;SDS011;22958;51.232;6.826;2024-03-08T13:55:59;16.25;;;9.57;;
37049;SDS011;22958;51.232;6.826;2024-03-08T13:58:26;16.73;;;10.25;;
37049;SDS011;22958;51.232;6.826;2024-03-08T14:00:52;19.90;;;9.23;;
37049;SDS011;22958;51.232;6.826;2024-03-08T14:03:17;17.10;;;10.10;;
37049;SDS011;22958;51.232;6.826;2024-03-08T14:05:43;17.60;;;9.83;;
37049;SDS011;22958;51.232;6.826;2024-03-08T14:08:09;14.05;;;9.43;;
37049;SDS011;22958;51.232;6.826;2024-03-08T14:10:37;16.92;;;9.68;;
37049;SDS011;22958;51.232;6.826;2024-03-08T14:13:03;15.45;;;9.55;;
37049;SDS011;22958;51.232;6.826;2024-03-08T14:15:30;15.15;;;9.57;;
37049;SDS011;22958;51.232;6.826;2024-03-08T14:20:22;21.00;;;9.05;;
37049;SDS011;22958;51.232;6.826;2024-03-08T14:22:52;18.10;;;9.38;;
37049;SDS011;22958;51.232;6.826;2024-03-08T14:25:18;22.10;;;10.27;;
37049;SDS011;22958;51.232;6.826;2024-03-08T14:27:44;20.20;;;10.63;;
37049;SDS011;22958;51.232;6.826;2024-03-08T14:30:10;16.45;;;10.00;;
37049;SDS011;22958;51.232;6.826;2024-03-08T14:32:36;15.32;;;9.35;;
37049;SDS011;22958;51.232;6.826;2024-03-08T14:35:05;16.83;;;10.80;;
37049;SDS011;22958;51.232;6.826;2024-03-08T14:37:31;18.15;;;11.18;;
37049;SDS011;22958;51.232;6.826;2024-03-08T14:39:56;19.43;;;10.50;;
37049;SDS011;22958;51.232;6.826;2024-03-08T14:42:22;18.47;;;11.03;;
37049;SDS011;22958;51.232;6.826;2024-03-08T14:44:50;17.80;;;11.35;;
37049;SDS011;22958;51.232;6.826;2024-03-08T14:47:17;19.73;;;10.60;;